Главная страница
METAR-TAF:

METAR-TAF

Аэропорты :

Sussex Airport

Sussex, Нью-Джерси, США

широта: 41-12-01N, долгота: 074-37-23W, высота над уровнем моря: 128 м

Текущие метеонаблюдения

Эта сводка был подготовлена 28 минут назад, в 23:53 UTC
Ветер 3 Узел от северо-западный
Температура 17°C
Влажность 39%
Давление 1011 hPa
Видимость: 16.1 км
ясное небо

METAR: KFWN 242353Z AUTO 32003KT 10SM CLR 17/03 A2984 RMK AO2 SLP103 T01670033 10189 20167 53010

Время: 20:21 (00:21 UTC)


TAF: отсутствует

Метеонаблюдения и прогнозы для более 4000 аэропортов (сводки METAR и TAF).

Имеющиеся станции представлены на карте желтыми и красными точками.

Чтобы увидеть название станции, наведите на нее мышь.

Затем щелкните, чтобы увидеть метеонаблюдения и метеопрогнозы.

Управление картой: чтобы увеличить масштаб, щелкните зеленые кнопки с черным крестиком; чтобы уменьшить масштаб, щелкните зеленую кнопку с тире; для просмотра соседних карт щелкайте зеленые стрелки.


METAR-TAF: